sensor_id;sensor_type;location;lat;lon;timestamp;temperature;humidity
14893;DHT22;7538;53.626;9.906;2023-02-24T00:01:36;6.10;99.90
14893;DHT22;7538;53.626;9.906;2023-02-24T00:04:05;6.10;99.90
14893;DHT22;7538;53.626;9.906;2023-02-24T00:06:36;6.10;99.90
14893;DHT22;7538;53.626;9.906;2023-02-24T00:09:05;6.10;99.90
14893;DHT22;7538;53.626;9.906;2023-02-24T00:11:34;6.10;99.90
14893;DHT22;7538;53.626;9.906;2023-02-24T00:14:04;6.10;99.90
14893;DHT22;7538;53.626;9.906;2023-02-24T00:16:31;6.10;99.90
14893;DHT22;7538;53.626;9.906;2023-02-24T00:18:58;6.10;99.90
14893;DHT22;7538;53.626;9.906;2023-02-24T00:21:26;6.10;99.90
14893;DHT22;7538;53.626;9.906;2023-02-24T00:23:55;6.10;99.90
14893;DHT22;7538;53.626;9.906;2023-02-24T00:26:24;6.20;99.90
14893;DHT22;7538;53.626;9.906;2023-02-24T00:28:51;8.30;99.90
14893;DHT22;7538;53.626;9.906;2023-02-24T00:31:19;6.20;99.90
14893;DHT22;7538;53.626;9.906;2023-02-24T00:33:48;6.10;99.90
14893;DHT22;7538;53.626;9.906;2023-02-24T00:36:16;6.10;99.90
14893;DHT22;7538;53.626;9.906;2023-02-24T00:38:49;6.10;99.90
14893;DHT22;7538;53.626;9.906;2023-02-24T00:41:18;6.10;99.90
14893;DHT22;7538;53.626;9.906;2023-02-24T00:43:48;6.10;99.90
14893;DHT22;7538;53.626;9.906;2023-02-24T00:46:15;6.10;99.90
14893;DHT22;7538;53.626;9.906;2023-02-24T00:48:43;6.20;99.90
14893;DHT22;7538;53.626;9.906;2023-02-24T00:51:12;6.20;99.90
14893;DHT22;7538;53.626;9.906;2023-02-24T00:53:41;6.20;99.90
14893;DHT22;7538;53.626;9.906;2023-02-24T00:56:10;6.20;99.90
14893;DHT22;7538;53.626;9.906;2023-02-24T00:58:39;6.10;99.90
14893;DHT22;7538;53.626;9.906;2023-02-24T01:01:11;8.60;99.90
14893;DHT22;7538;53.626;9.906;2023-02-24T01:03:38;6.10;99.90
14893;DHT22;7538;53.626;9.906;2023-02-24T01:06:05;6.10;99.90
14893;DHT22;7538;53.626;9.906;2023-02-24T01:08:32;6.10;99.90
14893;DHT22;7538;53.626;9.906;2023-02-24T01:11:02;6.00;99.90
14893;DHT22;7538;53.626;9.906;2023-02-24T01:13:48;8.30;99.90
14893;DHT22;7538;53.626;9.906;2023-02-24T01:16:15;6.70;99.90
14893;DHT22;7538;53.626;9.906;2023-02-24T01:18:44;6.10;99.90
14893;DHT22;7538;53.626;9.906;2023-02-24T01:21:12;7.90;99.90
14893;DHT22;7538;53.626;9.906;2023-02-24T01:23:39;6.00;99.90
14893;DHT22;7538;53.626;9.906;2023-02-24T01:26:06;6.00;99.90
14893;DHT22;7538;53.626;9.906;2023-02-24T01:28:34;6.10;99.90
14893;DHT22;7538;53.626;9.906;2023-02-24T01:31:04;6.00;99.90
14893;DHT22;7538;53.626;9.906;2023-02-24T01:33:32;6.00;99.90
14893;DHT22;7538;53.626;9.906;2023-02-24T01:36:08;6.00;99.90
14893;DHT22;7538;53.626;9.906;2023-02-24T01:38:35;5.90;99.90
14893;DHT22;7538;53.626;9.906;2023-02-24T01:41:04;5.90;99.90
14893;DHT22;7538;53.626;9.906;2023-02-24T01:43:32;5.90;99.90
14893;DHT22;7538;53.626;9.906;2023-02-24T01:46:00;5.90;99.90
14893;DHT22;7538;53.626;9.906;2023-02-24T01:48:28;5.80;99.90
14893;DHT22;7538;53.626;9.906;2023-02-24T01:50:55;5.90;99.90
14893;DHT22;7538;53.626;9.906;2023-02-24T01:53:23;5.90;99.90
14893;DHT22;7538;53.626;9.906;2023-02-24T01:55:50;5.90;99.90
14893;DHT22;7538;53.626;9.906;2023-02-24T01:58:23;5.80;99.90
14893;DHT22;7538;53.626;9.906;2023-02-24T02:00:51;9.30;99.90
14893;DHT22;7538;53.626;9.906;2023-02-24T02:03:22;5.80;99.90
14893;DHT22;7538;53.626;9.906;2023-02-24T02:05:53;5.90;99.90
14893;DHT22;7538;53.626;9.906;2023-02-24T02:08:21;5.90;99.90
14893;DHT22;7538;53.626;9.906;2023-02-24T02:10:50;5.80;99.90
14893;DHT22;7538;53.626;9.906;2023-02-24T02:13:23;5.80;99.90
14893;DHT22;7538;53.626;9.906;2023-02-24T02:15:58;5.80;99.90
14893;DHT22;7538;53.626;9.906;2023-02-24T02:18:35;5.80;99.90
14893;DHT22;7538;53.626;9.906;2023-02-24T02:21:34;5.90;99.90
14893;DHT22;7538;53.626;9.906;2023-02-24T02:24:19;5.80;99.90
14893;DHT22;7538;53.626;9.906;2023-02-24T02:27:19;5.80;99.90
14893;DHT22;7538;53.626;9.906;2023-02-24T02:36:05;5.70;99.90
14893;DHT22;7538;53.626;9.906;2023-02-24T02:38:44;5.70;99.90
14893;DHT22;7538;53.626;9.906;2023-02-24T02:41:19;7.80;99.90
14893;DHT22;7538;53.626;9.906;2023-02-24T02:43:50;5.60;99.90
14893;DHT22;7538;53.626;9.906;2023-02-24T02:46:25;5.60;99.90
14893;DHT22;7538;53.626;9.906;2023-02-24T02:49:03;5.60;99.90
14893;DHT22;7538;53.626;9.906;2023-02-24T02:51:37;5.60;99.90
14893;DHT22;7538;53.626;9.906;2023-02-24T02:54:10;5.60;99.90
14893;DHT22;7538;53.626;9.906;2023-02-24T02:56:42;5.60;99.90
14893;DHT22;7538;53.626;9.906;2023-02-24T02:59:11;5.60;99.90
14893;DHT22;7538;53.626;9.906;2023-02-24T03:01:41;2.40;99.90
14893;DHT22;7538;53.626;9.906;2023-02-24T03:04:12;5.60;99.90
14893;DHT22;7538;53.626;9.906;2023-02-24T03:06:46;5.60;99.90
14893;DHT22;7538;53.626;9.906;2023-02-24T03:09:17;5.60;99.90
14893;DHT22;7538;53.626;9.906;2023-02-24T03:11:49;5.60;99.90
14893;DHT22;7538;53.626;9.906;2023-02-24T03:14:22;5.70;99.90
14893;DHT22;7538;53.626;9.906;2023-02-24T03:16:52;5.70;99.90
14893;DHT22;7538;53.626;9.906;2023-02-24T03:19:23;5.70;99.90
14893;DHT22;7538;53.626;9.906;2023-02-24T03:21:57;5.70;99.90
14893;DHT22;7538;53.626;9.906;2023-02-24T03:24:25;5.70;99.90
14893;DHT22;7538;53.626;9.906;2023-02-24T03:26:59;5.70;99.90
14893;DHT22;7538;53.626;9.906;2023-02-24T03:29:29;5.70;99.90
14893;DHT22;7538;53.626;9.906;2023-02-24T03:32:01;5.70;99.90
14893;DHT22;7538;53.626;9.906;2023-02-24T03:34:39;5.70;99.90
14893;DHT22;7538;53.626;9.906;2023-02-24T03:37:12;5.70;99.90
14893;DHT22;7538;53.626;9.906;2023-02-24T03:39:39;5.70;99.90
14893;DHT22;7538;53.626;9.906;2023-02-24T03:42:08;5.70;99.90
14893;DHT22;7538;53.626;9.906;2023-02-24T03:44:36;5.80;99.90
14893;DHT22;7538;53.626;9.906;2023-02-24T03:47:03;5.70;99.90
14893;DHT22;7538;53.626;9.906;2023-02-24T03:49:30;5.70;99.90
14893;DHT22;7538;53.626;9.906;2023-02-24T03:52:09;5.80;99.90
14893;DHT22;7538;53.626;9.906;2023-02-24T03:55:00;5.80;99.90
14893;DHT22;7538;53.626;9.906;2023-02-24T03:57:42;5.80;99.90
14893;DHT22;7538;53.626;9.906;2023-02-24T04:00:26;5.80;99.90
14893;DHT22;7538;53.626;9.906;2023-02-24T04:03:15;5.70;99.90
14893;DHT22;7538;53.626;9.906;2023-02-24T04:05:53;5.80;99.90
14893;DHT22;7538;53.626;9.906;2023-02-24T04:08:25;5.70;99.90
14893;DHT22;7538;53.626;9.906;2023-02-24T04:10:59;5.70;99.90
14893;DHT22;7538;53.626;9.906;2023-02-24T04:13:34;5.70;99.90
14893;DHT22;7538;53.626;9.906;2023-02-24T04:16:09;5.70;99.90
14893;DHT22;7538;53.626;9.906;2023-02-24T04:18:46;5.70;99.90
14893;DHT22;7538;53.626;9.906;2023-02-24T04:21:16;5.70;99.90
14893;DHT22;7538;53.626;9.906;2023-02-24T04:23:43;5.60;99.90
14893;DHT22;7538;53.626;9.906;2023-02-24T04:26:13;5.60;99.90
14893;DHT22;7538;53.626;9.906;2023-02-24T04:28:42;5.60;99.90
14893;DHT22;7538;53.626;9.906;2023-02-24T04:31:11;5.60;99.90
14893;DHT22;7538;53.626;9.906;2023-02-24T04:33:43;5.60;99.90
14893;DHT22;7538;53.626;9.906;2023-02-24T04:36:15;5.60;99.90
14893;DHT22;7538;53.626;9.906;2023-02-24T04:38:42;5.60;99.90
14893;DHT22;7538;53.626;9.906;2023-02-24T04:41:11;5.60;99.90
14893;DHT22;7538;53.626;9.906;2023-02-24T04:43:44;5.60;99.90
14893;DHT22;7538;53.626;9.906;2023-02-24T04:46:10;5.50;99.90
14893;DHT22;7538;53.626;9.906;2023-02-24T04:48:38;5.60;99.90
14893;DHT22;7538;53.626;9.906;2023-02-24T04:51:04;5.60;99.90
14893;DHT22;7538;53.626;9.906;2023-02-24T04:53:32;5.60;99.90
14893;DHT22;7538;53.626;9.906;2023-02-24T04:56:02;5.60;99.90
14893;DHT22;7538;53.626;9.906;2023-02-24T04:58:35;5.60;99.90
14893;DHT22;7538;53.626;9.906;2023-02-24T05:01:06;5.50;99.90
14893;DHT22;7538;53.626;9.906;2023-02-24T05:03:35;5.60;99.90
14893;DHT22;7538;53.626;9.906;2023-02-24T05:06:02;5.50;99.90
14893;DHT22;7538;53.626;9.906;2023-02-24T05:08:31;5.50;99.90
14893;DHT22;7538;53.626;9.906;2023-02-24T05:10:58;5.50;99.90
14893;DHT22;7538;53.626;9.906;2023-02-24T05:13:29;5.40;99.90
14893;DHT22;7538;53.626;9.906;2023-02-24T05:16:03;5.40;99.90
14893;DHT22;7538;53.626;9.906;2023-02-24T05:18:32;5.40;99.90
14893;DHT22;7538;53.626;9.906;2023-02-24T05:21:04;5.40;99.90
14893;DHT22;7538;53.626;9.906;2023-02-24T05:23:50;5.30;99.90
14893;DHT22;7538;53.626;9.906;2023-02-24T05:26:19;5.30;99.90
14893;DHT22;7538;53.626;9.906;2023-02-24T05:28:47;5.30;99.90
14893;DHT22;7538;53.626;9.906;2023-02-24T05:31:19;5.30;99.90
14893;DHT22;7538;53.626;9.906;2023-02-24T05:33:52;5.40;99.90
14893;DHT22;7538;53.626;9.906;2023-02-24T05:36:20;5.40;99.90
14893;DHT22;7538;53.626;9.906;2023-02-24T05:38:49;5.40;99.90
14893;DHT22;7538;53.626;9.906;2023-02-24T05:41:20;5.40;99.90
14893;DHT22;7538;53.626;9.906;2023-02-24T05:43:48;5.40;99.90
14893;DHT22;7538;53.626;9.906;2023-02-24T05:46:20;5.40;99.90
14893;DHT22;7538;53.626;9.906;2023-02-24T05:48:52;5.40;99.90
14893;DHT22;7538;53.626;9.906;2023-02-24T05:51:21;5.40;99.90
14893;DHT22;7538;53.626;9.906;2023-02-24T05:53:50;5.40;99.90
14893;DHT22;7538;53.626;9.906;2023-02-24T05:56:20;5.40;99.90
14893;DHT22;7538;53.626;9.906;2023-02-24T05:58:47;5.40;99.90
14893;DHT22;7538;53.626;9.906;2023-02-24T06:01:15;5.50;99.90
14893;DHT22;7538;53.626;9.906;2023-02-24T06:03:45;5.50;99.90
14893;DHT22;7538;53.626;9.906;2023-02-24T06:06:13;5.50;99.90
14893;DHT22;7538;53.626;9.906;2023-02-24T06:08:41;5.50;99.90
14893;DHT22;7538;53.626;9.906;2023-02-24T06:11:15;5.50;99.90
14893;DHT22;7538;53.626;9.906;2023-02-24T06:13:43;5.50;99.90
14893;DHT22;7538;53.626;9.906;2023-02-24T06:16:12;5.50;99.90
14893;DHT22;7538;53.626;9.906;2023-02-24T06:18:40;5.40;99.90
14893;DHT22;7538;53.626;9.906;2023-02-24T06:21:08;5.30;99.90
14893;DHT22;7538;53.626;9.906;2023-02-24T06:23:38;5.30;99.90
14893;DHT22;7538;53.626;9.906;2023-02-24T06:26:07;5.20;99.90
14893;DHT22;7538;53.626;9.906;2023-02-24T06:28:38;5.10;99.90
14893;DHT22;7538;53.626;9.906;2023-02-24T06:31:08;5.00;99.90
14893;DHT22;7538;53.626;9.906;2023-02-24T06:33:36;4.90;99.90
14893;DHT22;7538;53.626;9.906;2023-02-24T06:36:04;4.90;99.90
14893;DHT22;7538;53.626;9.906;2023-02-24T06:38:33;4.80;99.90
14893;DHT22;7538;53.626;9.906;2023-02-24T06:41:02;4.80;99.90
14893;DHT22;7538;53.626;9.906;2023-02-24T06:43:35;4.80;99.90
14893;DHT22;7538;53.626;9.906;2023-02-24T06:46:03;4.80;99.90
14893;DHT22;7538;53.626;9.906;2023-02-24T06:48:31;4.80;99.90
14893;DHT22;7538;53.626;9.906;2023-02-24T06:51:02;4.80;99.90
14893;DHT22;7538;53.626;9.906;2023-02-24T06:53:31;4.80;99.90
14893;DHT22;7538;53.626;9.906;2023-02-24T06:56:04;4.80;99.90
14893;DHT22;7538;53.626;9.906;2023-02-24T06:58:40;4.80;99.90
14893;DHT22;7538;53.626;9.906;2023-02-24T07:01:09;6.50;99.90
14893;DHT22;7538;53.626;9.906;2023-02-24T07:03:36;4.70;99.90
14893;DHT22;7538;53.626;9.906;2023-02-24T07:06:27;4.70;99.90
14893;DHT22;7538;53.626;9.906;2023-02-24T07:08:57;4.70;99.90
14893;DHT22;7538;53.626;9.906;2023-02-24T07:11:27;4.70;99.90
14893;DHT22;7538;53.626;9.906;2023-02-24T07:13:54;4.70;99.90
14893;DHT22;7538;53.626;9.906;2023-02-24T07:16:23;7.10;99.90
14893;DHT22;7538;53.626;9.906;2023-02-24T07:18:53;4.70;99.90
14893;DHT22;7538;53.626;9.906;2023-02-24T07:21:22;4.70;99.90
14893;DHT22;7538;53.626;9.906;2023-02-24T07:23:50;4.70;99.90
14893;DHT22;7538;53.626;9.906;2023-02-24T07:26:24;4.60;99.90
14893;DHT22;7538;53.626;9.906;2023-02-24T07:28:53;4.60;99.90
14893;DHT22;7538;53.626;9.906;2023-02-24T07:31:22;4.60;99.90
14893;DHT22;7538;53.626;9.906;2023-02-24T07:33:52;4.60;99.90
14893;DHT22;7538;53.626;9.906;2023-02-24T07:36:20;4.60;99.90
14893;DHT22;7538;53.626;9.906;2023-02-24T07:38:50;4.50;99.90
14893;DHT22;7538;53.626;9.906;2023-02-24T07:41:19;4.50;99.90
14893;DHT22;7538;53.626;9.906;2023-02-24T07:43:49;4.50;99.90
14893;DHT22;7538;53.626;9.906;2023-02-24T07:46:19;4.50;99.90
14893;DHT22;7538;53.626;9.906;2023-02-24T07:48:49;4.50;99.90
14893;DHT22;7538;53.626;9.906;2023-02-24T07:51:18;4.40;99.90
14893;DHT22;7538;53.626;9.906;2023-02-24T07:53:48;4.40;99.90
14893;DHT22;7538;53.626;9.906;2023-02-24T07:56:15;4.40;99.90
14893;DHT22;7538;53.626;9.906;2023-02-24T07:58:43;4.40;99.90
14893;DHT22;7538;53.626;9.906;2023-02-24T08:01:12;4.30;99.90
14893;DHT22;7538;53.626;9.906;2023-02-24T08:03:47;4.30;99.90
14893;DHT22;7538;53.626;9.906;2023-02-24T08:06:16;4.20;99.90
14893;DHT22;7538;53.626;9.906;2023-02-24T08:08:52;4.20;99.90
14893;DHT22;7538;53.626;9.906;2023-02-24T08:11:41;4.20;99.90
14893;DHT22;7538;53.626;9.906;2023-02-24T08:14:11;4.30;99.90
14893;DHT22;7538;53.626;9.906;2023-02-24T08:16:42;4.30;99.90
14893;DHT22;7538;53.626;9.906;2023-02-24T08:19:11;4.30;99.90
14893;DHT22;7538;53.626;9.906;2023-02-24T08:21:39;4.30;99.90
14893;DHT22;7538;53.626;9.906;2023-02-24T08:24:13;4.30;99.90
14893;DHT22;7538;53.626;9.906;2023-02-24T08:26:43;4.30;99.90
14893;DHT22;7538;53.626;9.906;2023-02-24T08:29:10;4.30;99.90
14893;DHT22;7538;53.626;9.906;2023-02-24T08:31:37;4.30;99.90
14893;DHT22;7538;53.626;9.906;2023-02-24T08:34:06;4.40;99.90
14893;DHT22;7538;53.626;9.906;2023-02-24T08:36:33;4.40;99.90
14893;DHT22;7538;53.626;9.906;2023-02-24T08:39:00;4.50;99.90
14893;DHT22;7538;53.626;9.906;2023-02-24T08:41:27;4.50;99.90
14893;DHT22;7538;53.626;9.906;2023-02-24T08:44:11;4.50;99.90
14893;DHT22;7538;53.626;9.906;2023-02-24T08:46:43;4.50;99.90
14893;DHT22;7538;53.626;9.906;2023-02-24T08:49:12;4.40;99.90
14893;DHT22;7538;53.626;9.906;2023-02-24T08:51:42;4.30;99.90
14893;DHT22;7538;53.626;9.906;2023-02-24T08:54:11;4.30;99.90
14893;DHT22;7538;53.626;9.906;2023-02-24T08:56:41;4.20;99.90
14893;DHT22;7538;53.626;9.906;2023-02-24T08:59:11;4.20;99.90
14893;DHT22;7538;53.626;9.906;2023-02-24T09:01:54;4.20;99.90
14893;DHT22;7538;53.626;9.906;2023-02-24T09:04:43;4.20;99.90
14893;DHT22;7538;53.626;9.906;2023-02-24T09:07:15;4.30;99.90
14893;DHT22;7538;53.626;9.906;2023-02-24T09:09:43;4.40;99.90
14893;DHT22;7538;53.626;9.906;2023-02-24T09:12:11;4.40;99.90
14893;DHT22;7538;53.626;9.906;2023-02-24T09:14:47;4.40;99.90
14893;DHT22;7538;53.626;9.906;2023-02-24T09:17:14;4.50;99.90
14893;DHT22;7538;53.626;9.906;2023-02-24T09:19:47;4.40;99.90
14893;DHT22;7538;53.626;9.906;2023-02-24T09:22:32;4.50;99.90
14893;DHT22;7538;53.626;9.906;2023-02-24T09:25:22;4.50;99.90
14893;DHT22;7538;53.626;9.906;2023-02-24T09:27:52;4.60;99.90
14893;DHT22;7538;53.626;9.906;2023-02-24T09:30:22;4.60;99.90
14893;DHT22;7538;53.626;9.906;2023-02-24T09:33:13;4.60;99.90
14893;DHT22;7538;53.626;9.906;2023-02-24T09:35:46;4.70;99.90
14893;DHT22;7538;53.626;9.906;2023-02-24T09:38:14;4.70;99.90
14893;DHT22;7538;53.626;9.906;2023-02-24T09:40:43;4.80;99.90
14893;DHT22;7538;53.626;9.906;2023-02-24T09:43:21;4.70;99.90
14893;DHT22;7538;53.626;9.906;2023-02-24T09:45:58;4.80;99.90
14893;DHT22;7538;53.626;9.906;2023-02-24T09:48:37;4.70;99.90
14893;DHT22;7538;53.626;9.906;2023-02-24T09:51:11;4.70;99.90
14893;DHT22;7538;53.626;9.906;2023-02-24T09:53:47;4.70;99.90
14893;DHT22;7538;53.626;9.906;2023-02-24T09:56:19;6.00;99.90
14893;DHT22;7538;53.626;9.906;2023-02-24T09:58:52;4.80;99.90
14893;DHT22;7538;53.626;9.906;2023-02-24T10:01:29;4.80;99.90
14893;DHT22;7538;53.626;9.906;2023-02-24T10:04:02;4.90;99.90
14893;DHT22;7538;53.626;9.906;2023-02-24T10:06:38;5.00;99.90
14893;DHT22;7538;53.626;9.906;2023-02-24T10:09:11;5.10;99.90
14893;DHT22;7538;53.626;9.906;2023-02-24T10:11:41;5.10;99.90
14893;DHT22;7538;53.626;9.906;2023-02-24T10:14:33;5.20;99.90
14893;DHT22;7538;53.626;9.906;2023-02-24T10:17:14;5.30;99.90
14893;DHT22;7538;53.626;9.906;2023-02-24T10:19:54;5.40;99.90
14893;DHT22;7538;53.626;9.906;2023-02-24T10:22:39;5.40;99.90
14893;DHT22;7538;53.626;9.906;2023-02-24T10:25:24;5.40;99.90
14893;DHT22;7538;53.626;9.906;2023-02-24T10:27:59;5.50;99.90
14893;DHT22;7538;53.626;9.906;2023-02-24T10:30:37;5.50;99.90
14893;DHT22;7538;53.626;9.906;2023-02-24T10:33:17;5.40;99.90
14893;DHT22;7538;53.626;9.906;2023-02-24T10:35:45;5.40;99.90
14893;DHT22;7538;53.626;9.906;2023-02-24T10:38:14;5.40;99.90
14893;DHT22;7538;53.626;9.906;2023-02-24T10:40:46;5.50;99.90
14893;DHT22;7538;53.626;9.906;2023-02-24T10:43:22;5.50;99.90
14893;DHT22;7538;53.626;9.906;2023-02-24T10:45:55;5.40;99.90
14893;DHT22;7538;53.626;9.906;2023-02-24T10:48:31;5.50;99.90
14893;DHT22;7538;53.626;9.906;2023-02-24T10:51:11;5.50;99.90
14893;DHT22;7538;53.626;9.906;2023-02-24T10:53:46;5.60;99.90
14893;DHT22;7538;53.626;9.906;2023-02-24T10:56:18;5.60;99.90
14893;DHT22;7538;53.626;9.906;2023-02-24T10:59:09;5.70;99.90
14893;DHT22;7538;53.626;9.906;2023-02-24T11:02:15;5.70;99.90
14893;DHT22;7538;53.626;9.906;2023-02-24T11:04:52;5.80;99.90
14893;DHT22;7538;53.626;9.906;2023-02-24T11:07:29;5.90;99.90
14893;DHT22;7538;53.626;9.906;2023-02-24T11:10:16;6.00;99.90
14893;DHT22;7538;53.626;9.906;2023-02-24T11:12:51;6.00;99.90
14893;DHT22;7538;53.626;9.906;2023-02-24T11:15:41;6.10;99.90
14893;DHT22;7538;53.626;9.906;2023-02-24T11:18:29;6.20;99.90
14893;DHT22;7538;53.626;9.906;2023-02-24T11:20:58;6.30;99.90
14893;DHT22;7538;53.626;9.906;2023-02-24T11:23:33;6.30;99.90
14893;DHT22;7538;53.626;9.906;2023-02-24T11:26:08;6.40;99.90
14893;DHT22;7538;53.626;9.906;2023-02-24T11:28:49;6.40;99.90
14893;DHT22;7538;53.626;9.906;2023-02-24T11:31:31;6.50;99.90
14893;DHT22;7538;53.626;9.906;2023-02-24T11:34:06;6.50;99.90
14893;DHT22;7538;53.626;9.906;2023-02-24T11:36:40;6.70;99.90
14893;DHT22;7538;53.626;9.906;2023-02-24T11:39:26;8.80;99.90
14893;DHT22;7538;53.626;9.906;2023-02-24T11:42:00;6.80;99.90
14893;DHT22;7538;53.626;9.906;2023-02-24T11:44:30;6.90;99.90
14893;DHT22;7538;53.626;9.906;2023-02-24T11:47:02;7.00;99.90
14893;DHT22;7538;53.626;9.906;2023-02-24T11:49:37;7.00;99.90
14893;DHT22;7538;53.626;9.906;2023-02-24T11:52:12;7.00;99.90
14893;DHT22;7538;53.626;9.906;2023-02-24T11:54:44;7.10;99.90
14893;DHT22;7538;53.626;9.906;2023-02-24T11:57:19;7.10;99.90
14893;DHT22;7538;53.626;9.906;2023-02-24T11:59:52;7.20;99.90
14893;DHT22;7538;53.626;9.906;2023-02-24T12:02:29;7.10;99.90
14893;DHT22;7538;53.626;9.906;2023-02-24T12:05:08;7.10;99.90
14893;DHT22;7538;53.626;9.906;2023-02-24T12:07:40;7.20;99.90
14893;DHT22;7538;53.626;9.906;2023-02-24T12:10:15;7.30;99.90
14893;DHT22;7538;53.626;9.906;2023-02-24T12:12:48;7.30;99.90
14893;DHT22;7538;53.626;9.906;2023-02-24T12:15:22;7.80;99.90
14893;DHT22;7538;53.626;9.906;2023-02-24T12:18:05;7.80;99.90
14893;DHT22;7538;53.626;9.906;2023-02-24T12:20:41;7.90;99.90
14893;DHT22;7538;53.626;9.906;2023-02-24T12:23:14;8.20;99.90
14893;DHT22;7538;53.626;9.906;2023-02-24T12:26:00;8.30;99.90
14893;DHT22;7538;53.626;9.906;2023-02-24T12:31:32;8.30;99.90
14893;DHT22;7538;53.626;9.906;2023-02-24T12:34:06;8.20;99.90
14893;DHT22;7538;53.626;9.906;2023-02-24T12:36:53;8.10;99.90
14893;DHT22;7538;53.626;9.906;2023-02-24T12:39:28;8.20;99.90
14893;DHT22;7538;53.626;9.906;2023-02-24T12:42:10;6.50;99.90
14893;DHT22;7538;53.626;9.906;2023-02-24T12:44:48;8.00;99.90
14893;DHT22;7538;53.626;9.906;2023-02-24T12:47:24;8.10;99.90
14893;DHT22;7538;53.626;9.906;2023-02-24T12:50:15;8.00;99.90
14893;DHT22;7538;53.626;9.906;2023-02-24T12:52:52;8.00;99.90
14893;DHT22;7538;53.626;9.906;2023-02-24T12:55:25;7.90;99.90
14893;DHT22;7538;53.626;9.906;2023-02-24T12:58:01;8.10;99.90
14893;DHT22;7538;53.626;9.906;2023-02-24T13:00:44;8.30;99.90
14893;DHT22;7538;53.626;9.906;2023-02-24T13:03:24;8.60;99.90
14893;DHT22;7538;53.626;9.906;2023-02-24T13:06:01;8.90;99.90
14893;DHT22;7538;53.626;9.906;2023-02-24T13:08:39;9.00;99.90
14893;DHT22;7538;53.626;9.906;2023-02-24T13:11:12;9.00;99.90
14893;DHT22;7538;53.626;9.906;2023-02-24T13:13:46;12.20;99.90
14893;DHT22;7538;53.626;9.906;2023-02-24T13:16:28;9.00;99.90
14893;DHT22;7538;53.626;9.906;2023-02-24T13:19:04;9.00;99.90
14893;DHT22;7538;53.626;9.906;2023-02-24T13:21:32;9.00;99.90
14893;DHT22;7538;53.626;9.906;2023-02-24T13:24:01;10.70;99.90
14893;DHT22;7538;53.626;9.906;2023-02-24T13:26:29;8.80;99.90
14893;DHT22;7538;53.626;9.906;2023-02-24T13:29:01;8.80;99.90
14893;DHT22;7538;53.626;9.906;2023-02-24T13:31:41;8.70;99.90
14893;DHT22;7538;53.626;9.906;2023-02-24T13:34:13;8.60;99.90
14893;DHT22;7538;53.626;9.906;2023-02-24T13:36:46;8.50;99.90
14893;DHT22;7538;53.626;9.906;2023-02-24T13:39:22;8.50;99.90
14893;DHT22;7538;53.626;9.906;2023-02-24T13:42:02;8.40;99.90
14893;DHT22;7538;53.626;9.906;2023-02-24T13:44:29;8.10;99.90
14893;DHT22;7538;53.626;9.906;2023-02-24T13:50:13;7.80;99.90
14893;DHT22;7538;53.626;9.906;2023-02-24T13:56:05;8.00;99.90
14893;DHT22;7538;53.626;9.906;2023-02-24T13:58:58;8.10;99.90
14893;DHT22;7538;53.626;9.906;2023-02-24T14:01:30;8.20;99.90
14893;DHT22;7538;53.626;9.906;2023-02-24T14:04:13;8.20;99.90
14893;DHT22;7538;53.626;9.906;2023-02-24T14:06:45;8.20;99.90
14893;DHT22;7538;53.626;9.906;2023-02-24T14:09:16;8.10;99.90
14893;DHT22;7538;53.626;9.906;2023-02-24T14:11:50;8.00;99.90
14893;DHT22;7538;53.626;9.906;2023-02-24T14:14:19;7.90;99.90
14893;DHT22;7538;53.626;9.906;2023-02-24T14:16:49;7.90;99.90
14893;DHT22;7538;53.626;9.906;2023-02-24T14:19:17;7.90;99.90
14893;DHT22;7538;53.626;9.906;2023-02-24T14:21:50;8.00;99.90
14893;DHT22;7538;53.626;9.906;2023-02-24T14:24:18;8.00;99.90
14893;DHT22;7538;53.626;9.906;2023-02-24T14:26:47;7.90;99.90
14893;DHT22;7538;53.626;9.906;2023-02-24T14:29:17;7.90;99.90
14893;DHT22;7538;53.626;9.906;2023-02-24T14:31:49;8.00;99.90
14893;DHT22;7538;53.626;9.906;2023-02-24T14:34:21;8.00;99.90
14893;DHT22;7538;53.626;9.906;2023-02-24T14:36:50;8.10;99.90
14893;DHT22;7538;53.626;9.906;2023-02-24T14:39:19;8.20;99.90
14893;DHT22;7538;53.626;9.906;2023-02-24T14:41:46;8.20;99.90
14893;DHT22;7538;53.626;9.906;2023-02-24T14:44:20;8.20;99.90
14893;DHT22;7538;53.626;9.906;2023-02-24T14:46:48;8.30;99.90
14893;DHT22;7538;53.626;9.906;2023-02-24T14:49:20;8.30;99.90
14893;DHT22;7538;53.626;9.906;2023-02-24T14:51:49;10.30;99.90
14893;DHT22;7538;53.626;9.906;2023-02-24T14:54:26;8.30;99.90
14893;DHT22;7538;53.626;9.906;2023-02-24T14:56:57;8.30;99.90
14893;DHT22;7538;53.626;9.906;2023-02-24T14:59:30;8.20;99.90
14893;DHT22;7538;53.626;9.906;2023-02-24T15:01:58;8.10;99.90
14893;DHT22;7538;53.626;9.906;2023-02-24T15:04:32;8.10;99.90
14893;DHT22;7538;53.626;9.906;2023-02-24T15:07:04;8.10;99.90
14893;DHT22;7538;53.626;9.906;2023-02-24T15:09:34;8.00;99.90
14893;DHT22;7538;53.626;9.906;2023-02-24T15:12:17;8.00;99.90
14893;DHT22;7538;53.626;9.906;2023-02-24T15:14:49;7.80;99.90
14893;DHT22;7538;53.626;9.906;2023-02-24T15:17:20;7.90;99.90
14893;DHT22;7538;53.626;9.906;2023-02-24T15:19:48;7.80;99.90
14893;DHT22;7538;53.626;9.906;2023-02-24T15:22:32;7.90;99.90
14893;DHT22;7538;53.626;9.906;2023-02-24T15:25:16;7.90;99.90
14893;DHT22;7538;53.626;9.906;2023-02-24T15:27:50;7.80;99.90
14893;DHT22;7538;53.626;9.906;2023-02-24T15:30:28;7.70;99.90
14893;DHT22;7538;53.626;9.906;2023-02-24T15:33:01;7.90;99.90
14893;DHT22;7538;53.626;9.906;2023-02-24T15:35:31;7.70;99.90
14893;DHT22;7538;53.626;9.906;2023-02-24T15:37:59;7.80;99.90
14893;DHT22;7538;53.626;9.906;2023-02-24T15:40:29;7.80;99.90
14893;DHT22;7538;53.626;9.906;2023-02-24T15:42:58;7.80;99.90
14893;DHT22;7538;53.626;9.906;2023-02-24T15:45:29;7.80;99.90
14893;DHT22;7538;53.626;9.906;2023-02-24T15:47:58;7.80;99.90
14893;DHT22;7538;53.626;9.906;2023-02-24T15:50:27;7.80;99.90
14893;DHT22;7538;53.626;9.906;2023-02-24T15:52:58;7.70;99.90
14893;DHT22;7538;53.626;9.906;2023-02-24T15:55:27;7.70;99.90
14893;DHT22;7538;53.626;9.906;2023-02-24T15:57:59;7.70;99.90
14893;DHT22;7538;53.626;9.906;2023-02-24T16:00:28;7.70;99.90
14893;DHT22;7538;53.626;9.906;2023-02-24T16:02:55;7.70;99.90
14893;DHT22;7538;53.626;9.906;2023-02-24T16:05:23;7.60;99.90
14893;DHT22;7538;53.626;9.906;2023-02-24T16:07:50;7.60;99.90
14893;DHT22;7538;53.626;9.906;2023-02-24T16:10:22;7.50;99.90
14893;DHT22;7538;53.626;9.906;2023-02-24T16:12:52;7.40;99.90
14893;DHT22;7538;53.626;9.906;2023-02-24T16:15:22;7.40;99.90
14893;DHT22;7538;53.626;9.906;2023-02-24T16:17:50;7.40;99.90
14893;DHT22;7538;53.626;9.906;2023-02-24T16:20:19;7.30;99.90
14893;DHT22;7538;53.626;9.906;2023-02-24T16:22:53;7.30;99.90
14893;DHT22;7538;53.626;9.906;2023-02-24T16:25:22;7.40;99.90
14893;DHT22;7538;53.626;9.906;2023-02-24T16:27:50;7.30;99.90
14893;DHT22;7538;53.626;9.906;2023-02-24T16:30:22;7.40;99.90
14893;DHT22;7538;53.626;9.906;2023-02-24T16:32:49;7.40;99.90
14893;DHT22;7538;53.626;9.906;2023-02-24T16:35:16;7.30;99.90
14893;DHT22;7538;53.626;9.906;2023-02-24T16:37:45;7.30;99.90
14893;DHT22;7538;53.626;9.906;2023-02-24T16:40:19;7.20;99.90
14893;DHT22;7538;53.626;9.906;2023-02-24T16:42:49;7.30;99.90
14893;DHT22;7538;53.626;9.906;2023-02-24T16:45:16;7.20;99.90
14893;DHT22;7538;53.626;9.906;2023-02-24T16:47:44;7.20;99.90
14893;DHT22;7538;53.626;9.906;2023-02-24T16:50:20;7.10;99.90
14893;DHT22;7538;53.626;9.906;2023-02-24T16:52:47;7.00;99.90